sensor_id;sensor_type;location;lat;lon;timestamp;pressure;altitude;pressure_sealevel;temperature;humidity
10712;BME280;5407;51.234;6.804;2023-04-08T00:01:02;101652.38;;;23.79;41.49
10712;BME280;5407;51.234;6.804;2023-04-08T00:03:28;101653.13;;;23.79;41.48
10712;BME280;5407;51.234;6.804;2023-04-08T00:05:55;101651.56;;;23.78;41.32
10712;BME280;5407;51.234;6.804;2023-04-08T00:08:22;101653.13;;;23.79;41.32
10712;BME280;5407;51.234;6.804;2023-04-08T00:10:49;101655.88;;;23.79;41.24
10712;BME280;5407;51.234;6.804;2023-04-08T00:13:16;101655.88;;;23.79;41.39
10712;BME280;5407;51.234;6.804;2023-04-08T00:15:42;101655.88;;;23.79;41.39
10712;BME280;5407;51.234;6.804;2023-04-08T00:18:12;101655.88;;;23.79;41.36
10712;BME280;5407;51.234;6.804;2023-04-08T00:20:39;101646.47;;;23.80;41.22
10712;BME280;5407;51.234;6.804;2023-04-08T00:23:06;101655.09;;;23.82;41.21
10712;BME280;5407;51.234;6.804;2023-04-08T00:25:33;101657.09;;;23.82;41.36
10712;BME280;5407;51.234;6.804;2023-04-08T00:28:00;101651.97;;;23.80;41.40
10712;BME280;5407;51.234;6.804;2023-04-08T00:30:27;101656.69;;;23.80;41.32
10712;BME280;5407;51.234;6.804;2023-04-08T00:32:54;101664.16;;;23.79;41.50
10712;BME280;5407;51.234;6.804;2023-04-08T00:35:22;101666.56;;;23.81;41.40
10712;BME280;5407;51.234;6.804;2023-04-08T00:37:49;101656.69;;;23.80;41.45
10712;BME280;5407;51.234;6.804;2023-04-08T00:40:16;101654.31;;;23.78;41.45
10712;BME280;5407;51.234;6.804;2023-04-08T00:42:43;101660.63;;;23.79;41.40
10712;BME280;5407;51.234;6.804;2023-04-08T00:45:10;101663.38;;;23.79;41.52
10712;BME280;5407;51.234;6.804;2023-04-08T00:47:37;101665.34;;;23.78;41.53
10712;BME280;5407;51.234;6.804;2023-04-08T00:50:07;101664.97;;;23.76;41.39
10712;BME280;5407;51.234;6.804;2023-04-08T00:52:35;101651.19;;;23.76;41.50
10712;BME280;5407;51.234;6.804;2023-04-08T00:55:02;101659.47;;;23.76;41.50
10712;BME280;5407;51.234;6.804;2023-04-08T00:57:29;101663.00;;;23.77;41.49
10712;BME280;5407;51.234;6.804;2023-04-08T00:59:56;101662.22;;;23.76;41.32
10712;BME280;5407;51.234;6.804;2023-04-08T01:02:27;101668.91;;;23.75;41.44
10712;BME280;5407;51.234;6.804;2023-04-08T01:05:01;101666.16;;;23.75;41.52
10712;BME280;5407;51.234;6.804;2023-04-08T01:07:31;101670.09;;;23.74;41.35
10712;BME280;5407;51.234;6.804;2023-04-08T01:10:02;101677.97;;;23.76;41.41
10712;BME280;5407;51.234;6.804;2023-04-08T01:12:32;101670.91;;;23.75;41.42
10712;BME280;5407;51.234;6.804;2023-04-08T01:15:04;101678.75;;;23.76;41.33
10712;BME280;5407;51.234;6.804;2023-04-08T01:17:33;101673.66;;;23.75;41.31
10712;BME280;5407;51.234;6.804;2023-04-08T01:20:02;101677.19;;;23.75;41.33
10712;BME280;5407;51.234;6.804;2023-04-08T01:22:36;101674.03;;;23.77;41.39
10712;BME280;5407;51.234;6.804;2023-04-08T01:25:13;101674.44;;;23.75;41.30
10712;BME280;5407;51.234;6.804;2023-04-08T01:27:44;101674.00;;;23.80;41.86
10712;BME280;5407;51.234;6.804;2023-04-08T01:30:13;101683.47;;;23.83;41.88
10712;BME280;5407;51.234;6.804;2023-04-08T01:32:42;101678.69;;;23.87;41.59
10712;BME280;5407;51.234;6.804;2023-04-08T01:35:10;101686.53;;;23.88;41.85
10712;BME280;5407;51.234;6.804;2023-04-08T01:37:37;101677.13;;;23.89;41.73
10712;BME280;5407;51.234;6.804;2023-04-08T01:40:07;101680.63;;;23.90;41.83
10712;BME280;5407;51.234;6.804;2023-04-08T01:42:37;101685.75;;;23.91;41.71
10712;BME280;5407;51.234;6.804;2023-04-08T01:45:06;101675.94;;;23.90;41.77
10712;BME280;5407;51.234;6.804;2023-04-08T01:47:36;101682.19;;;23.94;41.89
10712;BME280;5407;51.234;6.804;2023-04-08T01:50:05;101681.81;;;23.92;41.67
10712;BME280;5407;51.234;6.804;2023-04-08T01:52:34;101687.31;;;23.92;41.84
10712;BME280;5407;51.234;6.804;2023-04-08T01:55:03;101682.56;;;23.93;41.74
10712;BME280;5407;51.234;6.804;2023-04-08T01:57:32;101683.38;;;23.93;41.67
10712;BME280;5407;51.234;6.804;2023-04-08T02:00:02;101679.06;;;23.92;41.75
10712;BME280;5407;51.234;6.804;2023-04-08T02:02:46;101682.19;;;23.91;41.74
10712;BME280;5407;51.234;6.804;2023-04-08T02:05:14;101681.44;;;23.90;41.80
10712;BME280;5407;51.234;6.804;2023-04-08T02:07:41;101683.78;;;23.92;41.68
10712;BME280;5407;51.234;6.804;2023-04-08T02:10:10;101685.75;;;23.91;41.68
10712;BME280;5407;51.234;6.804;2023-04-08T02:12:36;101685.75;;;23.91;41.78
10712;BME280;5407;51.234;6.804;2023-04-08T02:15:09;101679.44;;;23.91;41.61
10712;BME280;5407;51.234;6.804;2023-04-08T02:17:42;101684.19;;;23.90;41.74
10712;BME280;5407;51.234;6.804;2023-04-08T02:20:15;101677.13;;;23.89;41.78
10712;BME280;5407;51.234;6.804;2023-04-08T02:22:47;101681.44;;;23.90;41.71
10712;BME280;5407;51.234;6.804;2023-04-08T02:25:16;101689.72;;;23.90;41.64
10712;BME280;5407;51.234;6.804;2023-04-08T02:27:45;101687.34;;;23.89;41.58
10712;BME280;5407;51.234;6.804;2023-04-08T02:30:14;101677.13;;;23.86;41.62
10712;BME280;5407;51.234;6.804;2023-04-08T02:32:42;101688.16;;;23.86;41.65
10712;BME280;5407;51.234;6.804;2023-04-08T02:35:12;101687.34;;;23.85;41.57
10712;BME280;5407;51.234;6.804;2023-04-08T02:37:40;101691.31;;;23.84;41.75
10712;BME280;5407;51.234;6.804;2023-04-08T02:40:22;101689.75;;;23.83;41.71
10712;BME280;5407;51.234;6.804;2023-04-08T02:42:49;101690.53;;;23.84;41.67
10712;BME280;5407;51.234;6.804;2023-04-08T02:45:16;101691.72;;;23.83;41.70
10712;BME280;5407;51.234;6.804;2023-04-08T02:47:43;101697.25;;;23.83;41.67
10712;BME280;5407;51.234;6.804;2023-04-08T02:50:11;101693.69;;;23.82;41.73
10712;BME280;5407;51.234;6.804;2023-04-08T02:52:38;101693.69;;;23.82;41.71
10712;BME280;5407;51.234;6.804;2023-04-08T02:55:06;101697.63;;;23.81;41.68
10712;BME280;5407;51.234;6.804;2023-04-08T02:57:34;101695.25;;;23.80;41.80
10712;BME280;5407;51.234;6.804;2023-04-08T03:00:02;101697.63;;;23.81;41.71
10712;BME280;5407;51.234;6.804;2023-04-08T03:02:29;101694.47;;;23.79;41.62
10712;BME280;5407;51.234;6.804;2023-04-08T03:04:56;101696.06;;;23.80;41.63
10712;BME280;5407;51.234;6.804;2023-04-08T03:07:24;101707.09;;;23.80;41.70
10712;BME280;5407;51.234;6.804;2023-04-08T03:09:52;101706.28;;;23.80;41.51
10712;BME280;5407;51.234;6.804;2023-04-08T03:12:19;101705.50;;;23.79;41.52
10712;BME280;5407;51.234;6.804;2023-04-08T03:14:46;101705.50;;;23.79;41.69
10712;BME280;5407;51.234;6.804;2023-04-08T03:17:13;101707.47;;;23.79;41.65
10712;BME280;5407;51.234;6.804;2023-04-08T03:19:39;101703.16;;;23.78;41.53
10712;BME280;5407;51.234;6.804;2023-04-08T03:22:06;101703.16;;;23.78;41.59
10712;BME280;5407;51.234;6.804;2023-04-08T03:24:35;101710.63;;;23.77;41.53
10712;BME280;5407;51.234;6.804;2023-04-08T03:27:02;101705.13;;;23.77;41.54
10712;BME280;5407;51.234;6.804;2023-04-08T03:29:29;101701.97;;;23.75;41.65
10712;BME280;5407;51.234;6.804;2023-04-08T03:31:56;101703.56;;;23.76;41.54
10712;BME280;5407;51.234;6.804;2023-04-08T03:34:23;101700.78;;;23.76;41.65
10712;BME280;5407;51.234;6.804;2023-04-08T03:36:50;101708.69;;;23.74;41.60
10712;BME280;5407;51.234;6.804;2023-04-08T03:39:17;101704.75;;;23.75;41.75
10712;BME280;5407;51.234;6.804;2023-04-08T03:41:45;101703.97;;;23.75;41.67
10712;BME280;5407;51.234;6.804;2023-04-08T03:44:12;101710.25;;;23.75;41.61
10712;BME280;5407;51.234;6.804;2023-04-08T03:46:38;101703.16;;;23.74;41.49
10712;BME280;5407;51.234;6.804;2023-04-08T03:49:05;101710.25;;;23.75;41.63
10712;BME280;5407;51.234;6.804;2023-04-08T03:51:32;101715.38;;;23.73;41.63
10712;BME280;5407;51.234;6.804;2023-04-08T03:53:59;101718.13;;;23.73;41.65
10712;BME280;5407;51.234;6.804;2023-04-08T03:56:26;101713.06;;;23.72;41.63
10712;BME280;5407;51.234;6.804;2023-04-08T03:58:54;101715.00;;;23.72;41.73
10712;BME280;5407;51.234;6.804;2023-04-08T04:01:21;101714.63;;;23.73;41.65
10712;BME280;5407;51.234;6.804;2023-04-08T04:03:48;101709.88;;;23.73;41.61
10712;BME280;5407;51.234;6.804;2023-04-08T04:06:15;101712.25;;;23.72;41.71
10712;BME280;5407;51.234;6.804;2023-04-08T04:08:41;101712.63;;;23.73;41.76
10712;BME280;5407;51.234;6.804;2023-04-08T04:11:08;101710.28;;;23.72;41.65
10712;BME280;5407;51.234;6.804;2023-04-08T04:13:35;101708.31;;;23.73;41.73
10712;BME280;5407;51.234;6.804;2023-04-08T04:16:04;101718.56;;;23.72;41.83
10712;BME280;5407;51.234;6.804;2023-04-08T04:18:30;101720.53;;;23.72;41.73
10712;BME280;5407;51.234;6.804;2023-04-08T04:20:57;101721.31;;;23.72;41.68
10712;BME280;5407;51.234;6.804;2023-04-08T04:23:24;101723.66;;;23.73;41.64
10712;BME280;5407;51.234;6.804;2023-04-08T04:25:51;101726.81;;;23.72;41.71
10712;BME280;5407;51.234;6.804;2023-04-08T04:28:18;101734.66;;;23.73;41.72
10712;BME280;5407;51.234;6.804;2023-04-08T04:30:44;101738.63;;;23.73;41.77
10712;BME280;5407;51.234;6.804;2023-04-08T04:33:13;101742.94;;;23.73;41.72
10712;BME280;5407;51.234;6.804;2023-04-08T04:35:39;101742.16;;;23.73;41.67
10712;BME280;5407;51.234;6.804;2023-04-08T04:38:06;101742.94;;;23.73;41.72
10712;BME280;5407;51.234;6.804;2023-04-08T04:40:36;101750.44;;;23.73;41.76
10712;BME280;5407;51.234;6.804;2023-04-08T04:43:03;101745.69;;;23.73;41.81
10712;BME280;5407;51.234;6.804;2023-04-08T04:45:30;101748.44;;;23.73;41.61
10712;BME280;5407;51.234;6.804;2023-04-08T04:47:57;101741.75;;;23.74;41.59
10712;BME280;5407;51.234;6.804;2023-04-08T04:50:25;101751.22;;;23.73;41.68
10712;BME280;5407;51.234;6.804;2023-04-08T04:52:52;101754.34;;;23.75;41.66
10712;BME280;5407;51.234;6.804;2023-04-08T04:55:19;101752.78;;;23.74;41.56
10712;BME280;5407;51.234;6.804;2023-04-08T04:57:47;101754.34;;;23.75;41.54
10712;BME280;5407;51.234;6.804;2023-04-08T05:00:14;101752.00;;;23.74;41.60
10712;BME280;5407;51.234;6.804;2023-04-08T05:02:41;101759.47;;;23.73;41.56
10712;BME280;5407;51.234;6.804;2023-04-08T05:05:08;101761.47;;;23.73;41.57
10712;BME280;5407;51.234;6.804;2023-04-08T05:07:37;101752.41;;;23.73;41.60
10712;BME280;5407;51.234;6.804;2023-04-08T05:10:04;101756.72;;;23.73;41.59
10712;BME280;5407;51.234;6.804;2023-04-08T05:12:31;101760.66;;;23.73;41.67
10712;BME280;5407;51.234;6.804;2023-04-08T05:14:58;101762.22;;;23.73;41.57
10712;BME280;5407;51.234;6.804;2023-04-08T05:17:25;101751.22;;;23.73;41.62
10712;BME280;5407;51.234;6.804;2023-04-08T05:19:52;101759.84;;;23.75;42.01
10712;BME280;5407;51.234;6.804;2023-04-08T05:22:18;101763.03;;;23.74;41.82
10712;BME280;5407;51.234;6.804;2023-04-08T05:24:47;101757.53;;;23.71;41.74
10712;BME280;5407;51.234;6.804;2023-04-08T05:27:14;101766.97;;;23.70;41.82
10712;BME280;5407;51.234;6.804;2023-04-08T05:29:41;101769.34;;;23.68;41.99
10712;BME280;5407;51.234;6.804;2023-04-08T05:32:08;101772.91;;;23.65;42.02
10712;BME280;5407;51.234;6.804;2023-04-08T05:34:34;101780.38;;;23.68;42.03
10712;BME280;5407;51.234;6.804;2023-04-08T05:37:01;101786.69;;;23.65;42.26
10712;BME280;5407;51.234;6.804;2023-04-08T05:39:28;101785.09;;;23.71;42.32
10712;BME280;5407;51.234;6.804;2023-04-08T05:41:57;101788.22;;;23.73;42.57
10712;BME280;5407;51.234;6.804;2023-04-08T05:44:24;101788.22;;;23.76;42.86
10712;BME280;5407;51.234;6.804;2023-04-08T05:46:50;101793.31;;;23.77;42.88
10712;BME280;5407;51.234;6.804;2023-04-08T05:49:17;101788.56;;;23.81;42.56
10712;BME280;5407;51.234;6.804;2023-04-08T05:51:45;101794.47;;;23.83;42.67
10712;BME280;5407;51.234;6.804;2023-04-08T05:54:12;101803.91;;;23.86;42.65
10712;BME280;5407;51.234;6.804;2023-04-08T05:56:40;101799.16;;;23.86;42.66
10712;BME280;5407;51.234;6.804;2023-04-08T05:59:08;101811.75;;;23.87;42.45
10712;BME280;5407;51.234;6.804;2023-04-08T06:01:36;101803.09;;;23.89;42.60
10712;BME280;5407;51.234;6.804;2023-04-08T06:04:04;101807.81;;;23.88;42.57
10712;BME280;5407;51.234;6.804;2023-04-08T06:06:31;101803.09;;;23.89;42.53
10712;BME280;5407;51.234;6.804;2023-04-08T06:08:58;101811.75;;;23.87;42.50
10712;BME280;5407;51.234;6.804;2023-04-08T06:11:25;101805.88;;;23.85;42.45
10712;BME280;5407;51.234;6.804;2023-04-08T06:13:52;101807.06;;;23.84;42.33
10712;BME280;5407;51.234;6.804;2023-04-08T06:16:21;101816.53;;;23.83;42.39
10712;BME280;5407;51.234;6.804;2023-04-08T06:18:48;101816.53;;;23.83;42.40
10712;BME280;5407;51.234;6.804;2023-04-08T06:21:15;101811.81;;;23.84;42.26
10712;BME280;5407;51.234;6.804;2023-04-08T06:23:42;101821.25;;;23.83;42.25
10712;BME280;5407;51.234;6.804;2023-04-08T06:26:09;101820.47;;;23.82;42.19
10712;BME280;5407;51.234;6.804;2023-04-08T06:28:36;101825.59;;;23.84;42.33
10712;BME280;5407;51.234;6.804;2023-04-08T06:31:03;101835.03;;;23.83;42.17
10712;BME280;5407;51.234;6.804;2023-04-08T06:33:31;101837.00;;;23.82;42.13
10712;BME280;5407;51.234;6.804;2023-04-08T06:36:01;101830.72;;;23.82;42.29
10712;BME280;5407;51.234;6.804;2023-04-08T06:38:29;101832.66;;;23.81;42.25
10712;BME280;5407;51.234;6.804;2023-04-08T06:41:00;101837.00;;;23.82;42.19
10712;BME280;5407;51.234;6.804;2023-04-08T06:43:27;101831.50;;;23.82;42.26
10712;BME280;5407;51.234;6.804;2023-04-08T06:45:54;101835.81;;;23.83;42.16
10712;BME280;5407;51.234;6.804;2023-04-08T06:48:21;101838.56;;;23.83;42.16
10712;BME280;5407;51.234;6.804;2023-04-08T06:50:49;101838.56;;;23.83;42.12
10712;BME280;5407;51.234;6.804;2023-04-08T06:53:16;101848.03;;;23.82;42.24
10712;BME280;5407;51.234;6.804;2023-04-08T06:55:43;101840.56;;;23.83;42.14
10712;BME280;5407;51.234;6.804;2023-04-08T06:58:10;101845.25;;;23.82;42.22
10712;BME280;5407;51.234;6.804;2023-04-08T07:00:36;101844.50;;;23.82;42.20
10712;BME280;5407;51.234;6.804;2023-04-08T07:03:03;101846.47;;;23.81;42.01
10712;BME280;5407;51.234;6.804;2023-04-08T07:05:30;101857.47;;;23.81;42.11
10712;BME280;5407;51.234;6.804;2023-04-08T07:07:58;101857.88;;;23.80;41.96
10712;BME280;5407;51.234;6.804;2023-04-08T07:10:25;101860.63;;;23.80;42.04
10712;BME280;5407;51.234;6.804;2023-04-08T07:12:52;101862.56;;;23.79;42.02
10712;BME280;5407;51.234;6.804;2023-04-08T07:15:19;101859.81;;;23.79;42.07
10712;BME280;5407;51.234;6.804;2023-04-08T07:17:46;101866.13;;;23.80;42.05
10712;BME280;5407;51.234;6.804;2023-04-08T07:20:13;101860.22;;;23.81;41.97
10712;BME280;5407;51.234;6.804;2023-04-08T07:22:40;101864.56;;;23.82;41.86
10712;BME280;5407;51.234;6.804;2023-04-08T07:25:08;101870.06;;;23.82;41.92
10712;BME280;5407;51.234;6.804;2023-04-08T07:27:35;101867.31;;;23.82;41.91
10712;BME280;5407;51.234;6.804;2023-04-08T07:30:02;101869.31;;;23.82;41.83
10712;BME280;5407;51.234;6.804;2023-04-08T07:32:29;101875.59;;;23.82;41.70
10712;BME280;5407;51.234;6.804;2023-04-08T07:34:57;101868.50;;;23.81;41.83
10712;BME280;5407;51.234;6.804;2023-04-08T07:37:24;101871.25;;;23.81;41.84
10712;BME280;5407;51.234;6.804;2023-04-08T07:39:51;101879.53;;;23.81;41.63
10712;BME280;5407;51.234;6.804;2023-04-08T07:42:19;101883.09;;;23.82;41.57
10712;BME280;5407;51.234;6.804;2023-04-08T07:44:46;101889.78;;;23.81;41.64
10712;BME280;5407;51.234;6.804;2023-04-08T07:47:13;101894.88;;;23.82;41.56
10712;BME280;5407;51.234;6.804;2023-04-08T07:49:41;101890.56;;;23.81;41.53
10712;BME280;5407;51.234;6.804;2023-04-08T07:52:07;101900.38;;;23.82;41.65
10712;BME280;5407;51.234;6.804;2023-04-08T07:54:34;101901.97;;;23.83;41.54
10712;BME280;5407;51.234;6.804;2023-04-08T07:57:01;101908.66;;;23.82;41.43
10712;BME280;5407;51.234;6.804;2023-04-08T07:59:31;101903.94;;;23.83;41.61
10712;BME280;5407;51.234;6.804;2023-04-08T08:01:58;101910.22;;;23.83;41.62
10712;BME280;5407;51.234;6.804;2023-04-08T08:04:25;101908.66;;;23.82;41.58
10712;BME280;5407;51.234;6.804;2023-04-08T08:06:52;101910.22;;;23.83;41.57
10712;BME280;5407;51.234;6.804;2023-04-08T08:09:19;101910.22;;;23.83;41.68
10712;BME280;5407;51.234;6.804;2023-04-08T08:11:45;101917.31;;;23.84;41.45
10712;BME280;5407;51.234;6.804;2023-04-08T08:14:13;101927.56;;;23.84;41.61
10712;BME280;5407;51.234;6.804;2023-04-08T08:16:41;101925.56;;;23.84;41.69
10712;BME280;5407;51.234;6.804;2023-04-08T08:19:09;101928.34;;;23.84;41.65
10712;BME280;5407;51.234;6.804;2023-04-08T08:21:37;101930.31;;;23.84;41.69
10712;BME280;5407;51.234;6.804;2023-04-08T08:24:04;101938.97;;;23.86;41.54
10712;BME280;5407;51.234;6.804;2023-04-08T08:26:30;101940.94;;;23.85;41.67
10712;BME280;5407;51.234;6.804;2023-04-08T08:28:59;101944.88;;;23.84;41.58
10712;BME280;5407;51.234;6.804;2023-04-08T08:31:26;101940.16;;;23.85;41.59
10712;BME280;5407;51.234;6.804;2023-04-08T08:33:54;101944.88;;;23.84;41.58
10712;BME280;5407;51.234;6.804;2023-04-08T08:36:21;101943.31;;;23.83;41.78
10712;BME280;5407;51.234;6.804;2023-04-08T08:38:48;101939.78;;;23.83;41.81
10712;BME280;5407;51.234;6.804;2023-04-08T08:41:16;101948.81;;;23.83;41.82
10712;BME280;5407;51.234;6.804;2023-04-08T08:43:43;101946.06;;;23.83;41.73
10712;BME280;5407;51.234;6.804;2023-04-08T08:46:09;101942.53;;;23.83;41.81
10712;BME280;5407;51.234;6.804;2023-04-08T08:48:37;101941.72;;;23.82;41.69
10712;BME280;5407;51.234;6.804;2023-04-08T08:51:09;101943.31;;;23.83;41.74
10712;BME280;5407;51.234;6.804;2023-04-08T08:53:37;101934.66;;;23.85;41.76
10712;BME280;5407;51.234;6.804;2023-04-08T08:56:09;101944.09;;;23.84;41.86
10712;BME280;5407;51.234;6.804;2023-04-08T08:58:36;101946.06;;;23.83;41.89
10712;BME280;5407;51.234;6.804;2023-04-08T09:01:31;101943.69;;;23.85;41.79
10712;BME280;5407;51.234;6.804;2023-04-08T09:04:09;101952.38;;;23.84;41.61
10712;BME280;5407;51.234;6.804;2023-04-08T09:06:38;101946.44;;;23.85;41.80
10712;BME280;5407;51.234;6.804;2023-04-08T09:09:05;101949.19;;;23.85;41.86
10712;BME280;5407;51.234;6.804;2023-04-08T09:11:35;101950.38;;;23.84;41.85
10712;BME280;5407;51.234;6.804;2023-04-08T09:14:03;101955.50;;;23.86;41.78
10712;BME280;5407;51.234;6.804;2023-04-08T09:16:31;101950.78;;;23.86;41.72
10712;BME280;5407;51.234;6.804;2023-04-08T09:19:07;101951.56;;;23.87;41.84
10712;BME280;5407;51.234;6.804;2023-04-08T09:21:35;101951.94;;;23.85;41.63
10712;BME280;5407;51.234;6.804;2023-04-08T09:24:04;101951.94;;;23.85;41.76
10712;BME280;5407;51.234;6.804;2023-04-08T09:26:31;101953.94;;;23.85;41.69
10712;BME280;5407;51.234;6.804;2023-04-08T09:28:59;101959.44;;;23.85;41.66
10712;BME280;5407;51.234;6.804;2023-04-08T09:31:27;101954.31;;;23.87;41.93
10712;BME280;5407;51.234;6.804;2023-04-08T09:33:56;101963.78;;;23.82;41.79
10712;BME280;5407;51.234;6.804;2023-04-08T09:36:24;101968.91;;;23.84;41.72
10712;BME280;5407;51.234;6.804;2023-04-08T09:38:52;101968.50;;;23.89;41.97
10712;BME280;5407;51.234;6.804;2023-04-08T09:41:22;101971.25;;;23.92;41.77
10712;BME280;5407;51.234;6.804;2023-04-08T09:43:50;101973.19;;;23.95;41.75
10712;BME280;5407;51.234;6.804;2023-04-08T09:46:25;101971.63;;;23.94;41.93
10712;BME280;5407;51.234;6.804;2023-04-08T09:49:00;101973.97;;;23.96;41.73
10712;BME280;5407;51.234;6.804;2023-04-08T09:51:32;101970.81;;;23.97;41.79
10712;BME280;5407;51.234;6.804;2023-04-08T09:54:02;101981.03;;;24.00;41.71
10712;BME280;5407;51.234;6.804;2023-04-08T09:56:40;101974.34;;;24.01;41.87
10712;BME280;5407;51.234;6.804;2023-04-08T09:59:13;101981.44;;;24.02;41.70
10712;BME280;5407;51.234;6.804;2023-04-08T10:01:44;101980.25;;;24.03;41.63
10712;BME280;5407;51.234;6.804;2023-04-08T10:04:14;101978.25;;;24.04;41.69
10712;BME280;5407;51.234;6.804;2023-04-08T10:06:42;101977.50;;;24.03;41.66
10712;BME280;5407;51.234;6.804;2023-04-08T10:09:10;101974.72;;;24.03;41.80
10712;BME280;5407;51.234;6.804;2023-04-08T10:11:38;101970.38;;;24.06;41.65
10712;BME280;5407;51.234;6.804;2023-04-08T10:14:05;101975.88;;;24.06;41.64
10712;BME280;5407;51.234;6.804;2023-04-08T10:16:35;101977.06;;;24.05;41.69
10712;BME280;5407;51.234;6.804;2023-04-08T10:19:35;101978.25;;;24.07;41.70
10712;BME280;5407;51.234;6.804;2023-04-08T10:22:46;101973.94;;;24.06;42.08
10712;BME280;5407;51.234;6.804;2023-04-08T10:25:29;101969.97;;;24.04;42.20
10712;BME280;5407;51.234;6.804;2023-04-08T10:27:58;101967.66;;;24.02;41.88
10712;BME280;5407;51.234;6.804;2023-04-08T10:30:44;101968.84;;;24.01;41.96
10712;BME280;5407;51.234;6.804;2023-04-08T10:33:12;101973.53;;;24.01;42.16
10712;BME280;5407;51.234;6.804;2023-04-08T10:35:41;101976.72;;;23.99;42.31
10712;BME280;5407;51.234;6.804;2023-04-08T10:38:11;101975.53;;;24.00;41.81
10712;BME280;5407;51.234;6.804;2023-04-08T10:40:39;101978.28;;;24.00;41.90
10712;BME280;5407;51.234;6.804;2023-04-08T10:43:09;101983.81;;;24.00;41.99
10712;BME280;5407;51.234;6.804;2023-04-08T10:45:36;101975.53;;;23.97;42.13
10712;BME280;5407;51.234;6.804;2023-04-08T10:48:13;101973.59;;;23.97;41.98
10712;BME280;5407;51.234;6.804;2023-04-08T10:50:42;101973.19;;;23.95;42.00
10712;BME280;5407;51.234;6.804;2023-04-08T10:53:09;101978.72;;;23.95;42.11
10712;BME280;5407;51.234;6.804;2023-04-08T10:55:36;101968.44;;;23.96;42.31
10712;BME280;5407;51.234;6.804;2023-04-08T10:58:07;101960.59;;;23.94;42.32
10712;BME280;5407;51.234;6.804;2023-04-08T11:00:36;101967.66;;;23.99;42.17
10712;BME280;5407;51.234;6.804;2023-04-08T11:03:05;101962.91;;;24.03;42.25
10712;BME280;5407;51.234;6.804;2023-04-08T11:05:32;101957.00;;;24.04;42.25
10712;BME280;5407;51.234;6.804;2023-04-08T11:07:59;101969.19;;;24.07;41.88
10712;BME280;5407;51.234;6.804;2023-04-08T11:10:27;101962.09;;;24.06;42.32
10712;BME280;5407;51.234;6.804;2023-04-08T11:12:54;101957.38;;;24.06;42.18
10712;BME280;5407;51.234;6.804;2023-04-08T11:15:23;101954.63;;;24.06;42.14
10712;BME280;5407;51.234;6.804;2023-04-08T11:17:52;101944.78;;;24.05;42.05
10712;BME280;5407;51.234;6.804;2023-04-08T11:20:19;101936.91;;;24.07;42.21
10712;BME280;5407;51.234;6.804;2023-04-08T11:22:47;101942.41;;;24.07;42.01
10712;BME280;5407;51.234;6.804;2023-04-08T11:25:14;101934.50;;;24.09;42.02
10712;BME280;5407;51.234;6.804;2023-04-08T11:27:41;101935.72;;;24.08;42.08
10712;BME280;5407;51.234;6.804;2023-04-08T11:30:10;101942.78;;;24.09;41.72
10712;BME280;5407;51.234;6.804;2023-04-08T11:32:38;101938.47;;;24.08;41.48
10712;BME280;5407;51.234;6.804;2023-04-08T11:35:07;101940.03;;;24.13;42.01
10712;BME280;5407;51.234;6.804;2023-04-08T11:37:37;101938.03;;;24.13;42.22
10712;BME280;5407;51.234;6.804;2023-04-08T11:40:09;101939.22;;;24.12;42.10
10712;BME280;5407;51.234;6.804;2023-04-08T11:42:37;101944.75;;;24.12;41.89
10712;BME280;5407;51.234;6.804;2023-04-08T11:45:12;101946.31;;;24.13;42.10
10712;BME280;5407;51.234;6.804;2023-04-08T11:47:39;101943.56;;;24.13;42.18
10712;BME280;5407;51.234;6.804;2023-04-08T11:50:08;101944.75;;;24.12;41.89
10712;BME280;5407;51.234;6.804;2023-04-08T11:52:43;101949.06;;;24.13;41.99
10712;BME280;5407;51.234;6.804;2023-04-08T11:55:10;101949.06;;;24.13;41.90
10712;BME280;5407;51.234;6.804;2023-04-08T11:57:37;101946.31;;;24.13;41.99
10712;BME280;5407;51.234;6.804;2023-04-08T12:00:05;101947.88;;;24.14;42.03
10712;BME280;5407;51.234;6.804;2023-04-08T12:02:36;101943.16;;;24.11;41.90
10712;BME280;5407;51.234;6.804;2023-04-08T12:05:03;101951.81;;;24.13;42.37
10712;BME280;5407;51.234;6.804;2023-04-08T12:07:32;101957.34;;;24.13;42.42
10712;BME280;5407;51.234;6.804;2023-04-08T12:09:59;101962.09;;;24.13;42.21
10712;BME280;5407;51.234;6.804;2023-04-08T12:12:26;101956.56;;;24.13;42.20
10712;BME280;5407;51.234;6.804;2023-04-08T12:14:53;101955.38;;;24.10;42.27
10712;BME280;5407;51.234;6.804;2023-04-08T12:17:19;101959.72;;;24.11;42.28
10712;BME280;5407;51.234;6.804;2023-04-08T12:19:46;101958.53;;;24.12;42.38
10712;BME280;5407;51.234;6.804;2023-04-08T12:22:13;101964.03;;;24.12;42.52
10712;BME280;5407;51.234;6.804;2023-04-08T12:24:42;101970.75;;;24.11;42.37
10712;BME280;5407;51.234;6.804;2023-04-08T12:27:09;101965.22;;;24.11;42.28
10712;BME280;5407;51.234;6.804;2023-04-08T12:29:35;101960.91;;;24.10;42.32
10712;BME280;5407;51.234;6.804;2023-04-08T12:32:02;101973.50;;;24.11;42.25
10712;BME280;5407;51.234;6.804;2023-04-08T12:34:30;101973.50;;;24.11;42.27
10712;BME280;5407;51.234;6.804;2023-04-08T12:36:57;101966.81;;;24.12;42.25
10712;BME280;5407;51.234;6.804;2023-04-08T12:39:24;101975.88;;;24.13;42.06
10712;BME280;5407;51.234;6.804;2023-04-08T12:41:52;101979.41;;;24.13;42.17
10712;BME280;5407;51.234;6.804;2023-04-08T12:44:19;101979.41;;;24.13;42.01
10712;BME280;5407;51.234;6.804;2023-04-08T12:46:46;101977.84;;;24.12;42.12
10712;BME280;5407;51.234;6.804;2023-04-08T12:49:13;101973.88;;;24.13;41.98
10712;BME280;5407;51.234;6.804;2023-04-08T12:51:40;101973.88;;;24.13;42.23
10712;BME280;5407;51.234;6.804;2023-04-08T12:54:07;101973.09;;;24.16;41.98
10712;BME280;5407;51.234;6.804;2023-04-08T12:56:34;101980.97;;;24.14;41.82
10712;BME280;5407;51.234;6.804;2023-04-08T12:59:02;101979.41;;;24.13;42.17
10712;BME280;5407;51.234;6.804;2023-04-08T13:01:29;101969.94;;;24.14;41.81
10712;BME280;5407;51.234;6.804;2023-04-08T13:03:56;101967.97;;;24.15;41.77
10712;BME280;5407;51.234;6.804;2023-04-08T13:06:23;101967.56;;;24.16;41.91